sensor_id;sensor_type;location;lat;lon;timestamp;P1;durP1;ratioP1;P2;durP2;ratioP2
6438;SDS011;3252;52.540;13.290;2023-03-01T00:01:57;21.93;;;12.17;;
6438;SDS011;3252;52.540;13.290;2023-03-01T00:03:59;19.33;;;11.47;;
6438;SDS011;3252;52.540;13.290;2023-03-01T00:06:02;18.63;;;12.00;;
6438;SDS011;3252;52.540;13.290;2023-03-01T00:08:05;20.93;;;12.07;;
6438;SDS011;3252;52.540;13.290;2023-03-01T00:10:08;17.63;;;11.60;;
6438;SDS011;3252;52.540;13.290;2023-03-01T00:12:11;22.47;;;12.47;;
6438;SDS011;3252;52.540;13.290;2023-03-01T00:14:20;22.83;;;12.60;;
6438;SDS011;3252;52.540;13.290;2023-03-01T00:16:25;23.20;;;12.80;;
6438;SDS011;3252;52.540;13.290;2023-03-01T00:18:30;17.10;;;11.47;;
6438;SDS011;3252;52.540;13.290;2023-03-01T00:20:33;19.80;;;12.47;;
6438;SDS011;3252;52.540;13.290;2023-03-01T00:22:36;20.60;;;12.70;;
6438;SDS011;3252;52.540;13.290;2023-03-01T00:24:38;19.87;;;13.03;;
6438;SDS011;3252;52.540;13.290;2023-03-01T00:26:40;18.40;;;12.10;;
6438;SDS011;3252;52.540;13.290;2023-03-01T00:28:42;20.83;;;12.57;;
6438;SDS011;3252;52.540;13.290;2023-03-01T00:30:45;19.97;;;12.50;;
6438;SDS011;3252;52.540;13.290;2023-03-01T00:32:48;22.47;;;12.93;;
6438;SDS011;3252;52.540;13.290;2023-03-01T00:34:52;25.00;;;12.03;;
6438;SDS011;3252;52.540;13.290;2023-03-01T00:36:55;19.80;;;11.83;;
6438;SDS011;3252;52.540;13.290;2023-03-01T00:39:07;23.63;;;12.97;;
6438;SDS011;3252;52.540;13.290;2023-03-01T00:41:15;21.47;;;13.57;;
6438;SDS011;3252;52.540;13.290;2023-03-01T00:43:19;21.97;;;13.47;;
6438;SDS011;3252;52.540;13.290;2023-03-01T00:45:21;23.17;;;13.87;;
6438;SDS011;3252;52.540;13.290;2023-03-01T00:47:24;18.47;;;12.37;;
6438;SDS011;3252;52.540;13.290;2023-03-01T00:49:26;20.67;;;12.63;;
6438;SDS011;3252;52.540;13.290;2023-03-01T00:51:32;20.33;;;11.57;;
6438;SDS011;3252;52.540;13.290;2023-03-01T00:53:37;18.57;;;11.43;;
6438;SDS011;3252;52.540;13.290;2023-03-01T00:55:40;21.30;;;12.03;;
6438;SDS011;3252;52.540;13.290;2023-03-01T00:57:42;20.20;;;12.97;;
6438;SDS011;3252;52.540;13.290;2023-03-01T00:59:44;21.20;;;12.23;;
6438;SDS011;3252;52.540;13.290;2023-03-01T01:01:49;21.23;;;12.77;;
6438;SDS011;3252;52.540;13.290;2023-03-01T01:03:52;19.97;;;12.40;;
6438;SDS011;3252;52.540;13.290;2023-03-01T01:05:56;23.43;;;13.07;;
6438;SDS011;3252;52.540;13.290;2023-03-01T01:07:59;16.40;;;12.27;;
6438;SDS011;3252;52.540;13.290;2023-03-01T01:10:02;17.20;;;12.10;;
6438;SDS011;3252;52.540;13.290;2023-03-01T01:12:04;20.10;;;12.17;;
6438;SDS011;3252;52.540;13.290;2023-03-01T01:14:08;22.83;;;12.87;;
6438;SDS011;3252;52.540;13.290;2023-03-01T01:16:11;19.90;;;12.53;;
6438;SDS011;3252;52.540;13.290;2023-03-01T01:18:13;21.00;;;13.03;;
6438;SDS011;3252;52.540;13.290;2023-03-01T01:20:16;18.60;;;12.27;;
6438;SDS011;3252;52.540;13.290;2023-03-01T01:22:18;18.70;;;11.93;;
6438;SDS011;3252;52.540;13.290;2023-03-01T01:24:22;18.40;;;11.47;;
6438;SDS011;3252;52.540;13.290;2023-03-01T01:26:26;21.23;;;11.47;;
6438;SDS011;3252;52.540;13.290;2023-03-01T01:28:29;20.53;;;11.60;;
6438;SDS011;3252;52.540;13.290;2023-03-01T01:30:32;16.90;;;11.47;;
6438;SDS011;3252;52.540;13.290;2023-03-01T01:32:34;19.03;;;11.70;;
6438;SDS011;3252;52.540;13.290;2023-03-01T01:34:40;18.87;;;11.63;;
6438;SDS011;3252;52.540;13.290;2023-03-01T01:36:42;20.17;;;11.33;;
6438;SDS011;3252;52.540;13.290;2023-03-01T01:38:45;17.80;;;11.27;;
6438;SDS011;3252;52.540;13.290;2023-03-01T01:40:49;18.47;;;11.60;;
6438;SDS011;3252;52.540;13.290;2023-03-01T01:42:52;19.63;;;11.07;;
6438;SDS011;3252;52.540;13.290;2023-03-01T01:47:29;17.13;;;10.87;;
6438;SDS011;3252;52.540;13.290;2023-03-01T01:49:33;18.63;;;11.10;;
6438;SDS011;3252;52.540;13.290;2023-03-01T01:51:39;16.60;;;10.07;;
6438;SDS011;3252;52.540;13.290;2023-03-01T01:53:45;13.03;;;9.50;;
6438;SDS011;3252;52.540;13.290;2023-03-01T01:55:56;17.07;;;10.43;;
6438;SDS011;3252;52.540;13.290;2023-03-01T01:58:02;14.07;;;10.03;;
6438;SDS011;3252;52.540;13.290;2023-03-01T02:00:12;18.03;;;11.23;;
6438;SDS011;3252;52.540;13.290;2023-03-01T02:02:17;19.77;;;10.63;;
6438;SDS011;3252;52.540;13.290;2023-03-01T02:04:20;19.07;;;11.43;;
6438;SDS011;3252;52.540;13.290;2023-03-01T02:06:25;17.13;;;10.20;;
6438;SDS011;3252;52.540;13.290;2023-03-01T02:08:32;15.60;;;10.23;;
6438;SDS011;3252;52.540;13.290;2023-03-01T02:10:38;17.70;;;10.57;;
6438;SDS011;3252;52.540;13.290;2023-03-01T02:12:42;16.90;;;10.00;;
6438;SDS011;3252;52.540;13.290;2023-03-01T02:14:44;14.73;;;9.80;;
6438;SDS011;3252;52.540;13.290;2023-03-01T02:16:46;16.23;;;10.00;;
6438;SDS011;3252;52.540;13.290;2023-03-01T02:18:51;17.60;;;10.43;;
6438;SDS011;3252;52.540;13.290;2023-03-01T02:21:03;16.73;;;11.07;;
6438;SDS011;3252;52.540;13.290;2023-03-01T02:23:14;16.07;;;10.33;;
6438;SDS011;3252;52.540;13.290;2023-03-01T02:25:28;19.67;;;11.60;;
6438;SDS011;3252;52.540;13.290;2023-03-01T02:27:45;18.13;;;11.23;;
6438;SDS011;3252;52.540;13.290;2023-03-01T02:30:21;17.17;;;10.67;;
6438;SDS011;3252;52.540;13.290;2023-03-01T02:32:24;18.10;;;10.27;;
6438;SDS011;3252;52.540;13.290;2023-03-01T02:34:26;15.90;;;10.13;;
6438;SDS011;3252;52.540;13.290;2023-03-01T02:36:31;17.70;;;10.57;;
6438;SDS011;3252;52.540;13.290;2023-03-01T02:38:37;15.27;;;10.47;;
6438;SDS011;3252;52.540;13.290;2023-03-01T02:40:40;16.43;;;11.30;;
6438;SDS011;3252;52.540;13.290;2023-03-01T02:42:47;18.57;;;11.17;;
6438;SDS011;3252;52.540;13.290;2023-03-01T02:44:53;15.40;;;10.40;;
6438;SDS011;3252;52.540;13.290;2023-03-01T02:46:57;16.63;;;10.73;;
6438;SDS011;3252;52.540;13.290;2023-03-01T02:49:16;16.13;;;10.37;;
6438;SDS011;3252;52.540;13.290;2023-03-01T02:51:42;16.83;;;10.43;;
6438;SDS011;3252;52.540;13.290;2023-03-01T02:53:53;14.03;;;9.83;;
6438;SDS011;3252;52.540;13.290;2023-03-01T02:56:06;16.87;;;10.40;;
6438;SDS011;3252;52.540;13.290;2023-03-01T02:58:14;16.17;;;10.80;;
6438;SDS011;3252;52.540;13.290;2023-03-01T03:00:17;16.57;;;10.63;;
6438;SDS011;3252;52.540;13.290;2023-03-01T03:02:24;16.27;;;10.93;;
6438;SDS011;3252;52.540;13.290;2023-03-01T03:04:41;16.57;;;10.40;;
6438;SDS011;3252;52.540;13.290;2023-03-01T03:06:44;15.60;;;10.57;;
6438;SDS011;3252;52.540;13.290;2023-03-01T03:08:46;16.37;;;10.53;;
6438;SDS011;3252;52.540;13.290;2023-03-01T03:10:54;14.97;;;10.07;;
6438;SDS011;3252;52.540;13.290;2023-03-01T03:12:57;14.27;;;9.70;;
6438;SDS011;3252;52.540;13.290;2023-03-01T03:15:01;18.63;;;11.40;;
6438;SDS011;3252;52.540;13.290;2023-03-01T03:17:09;17.80;;;10.93;;
6438;SDS011;3252;52.540;13.290;2023-03-01T03:19:12;15.93;;;9.57;;
6438;SDS011;3252;52.540;13.290;2023-03-01T03:21:16;18.40;;;9.87;;
6438;SDS011;3252;52.540;13.290;2023-03-01T03:23:19;20.03;;;11.30;;
6438;SDS011;3252;52.540;13.290;2023-03-01T03:25:22;19.67;;;11.13;;
6438;SDS011;3252;52.540;13.290;2023-03-01T03:27:24;15.40;;;10.47;;
6438;SDS011;3252;52.540;13.290;2023-03-01T03:29:27;16.37;;;11.10;;
6438;SDS011;3252;52.540;13.290;2023-03-01T03:31:29;17.00;;;10.13;;
6438;SDS011;3252;52.540;13.290;2023-03-01T03:33:31;14.03;;;9.77;;
6438;SDS011;3252;52.540;13.290;2023-03-01T03:35:38;15.80;;;10.10;;
6438;SDS011;3252;52.540;13.290;2023-03-01T03:37:42;15.43;;;10.23;;
6438;SDS011;3252;52.540;13.290;2023-03-01T03:40:02;20.27;;;11.17;;
6438;SDS011;3252;52.540;13.290;2023-03-01T03:42:15;15.87;;;10.47;;
6438;SDS011;3252;52.540;13.290;2023-03-01T03:44:17;18.63;;;11.30;;
6438;SDS011;3252;52.540;13.290;2023-03-01T03:46:20;19.17;;;10.73;;
6438;SDS011;3252;52.540;13.290;2023-03-01T03:48:22;15.57;;;10.03;;
6438;SDS011;3252;52.540;13.290;2023-03-01T03:50:26;18.97;;;11.40;;
6438;SDS011;3252;52.540;13.290;2023-03-01T03:52:30;16.60;;;10.67;;
6438;SDS011;3252;52.540;13.290;2023-03-01T03:54:36;18.10;;;10.53;;
6438;SDS011;3252;52.540;13.290;2023-03-01T03:56:38;17.03;;;10.80;;
6438;SDS011;3252;52.540;13.290;2023-03-01T03:58:42;15.37;;;10.00;;
6438;SDS011;3252;52.540;13.290;2023-03-01T04:00:48;19.00;;;11.07;;
6438;SDS011;3252;52.540;13.290;2023-03-01T04:02:52;18.77;;;11.20;;
6438;SDS011;3252;52.540;13.290;2023-03-01T04:04:56;14.63;;;10.50;;
6438;SDS011;3252;52.540;13.290;2023-03-01T04:06:59;17.07;;;11.13;;
6438;SDS011;3252;52.540;13.290;2023-03-01T04:09:02;19.17;;;10.50;;
6438;SDS011;3252;52.540;13.290;2023-03-01T04:11:04;14.93;;;10.73;;
6438;SDS011;3252;52.540;13.290;2023-03-01T04:13:21;19.60;;;11.80;;
6438;SDS011;3252;52.540;13.290;2023-03-01T04:15:25;19.03;;;11.23;;
6438;SDS011;3252;52.540;13.290;2023-03-01T04:17:28;15.70;;;11.23;;
6438;SDS011;3252;52.540;13.290;2023-03-01T04:19:31;17.87;;;10.37;;
6438;SDS011;3252;52.540;13.290;2023-03-01T04:21:38;17.50;;;11.17;;
6438;SDS011;3252;52.540;13.290;2023-03-01T04:23:40;17.53;;;11.13;;
6438;SDS011;3252;52.540;13.290;2023-03-01T04:25:46;18.47;;;10.63;;
6438;SDS011;3252;52.540;13.290;2023-03-01T04:27:55;17.57;;;11.07;;
6438;SDS011;3252;52.540;13.290;2023-03-01T04:29:58;18.83;;;11.30;;
6438;SDS011;3252;52.540;13.290;2023-03-01T04:32:00;16.30;;;10.77;;
6438;SDS011;3252;52.540;13.290;2023-03-01T04:34:03;17.33;;;11.17;;
6438;SDS011;3252;52.540;13.290;2023-03-01T04:36:06;21.00;;;11.80;;
6438;SDS011;3252;52.540;13.290;2023-03-01T04:38:10;16.77;;;11.30;;
6438;SDS011;3252;52.540;13.290;2023-03-01T04:40:12;16.33;;;10.90;;
6438;SDS011;3252;52.540;13.290;2023-03-01T04:42:18;18.80;;;11.00;;
6438;SDS011;3252;52.540;13.290;2023-03-01T04:44:21;17.33;;;10.70;;
6438;SDS011;3252;52.540;13.290;2023-03-01T04:46:23;16.37;;;11.20;;
6438;SDS011;3252;52.540;13.290;2023-03-01T04:48:25;16.27;;;10.63;;
6438;SDS011;3252;52.540;13.290;2023-03-01T04:50:28;15.20;;;11.07;;
6438;SDS011;3252;52.540;13.290;2023-03-01T04:52:31;16.13;;;10.47;;
6438;SDS011;3252;52.540;13.290;2023-03-01T04:54:33;19.40;;;10.80;;
6438;SDS011;3252;52.540;13.290;2023-03-01T04:56:36;17.33;;;11.00;;
6438;SDS011;3252;52.540;13.290;2023-03-01T04:58:40;17.17;;;11.00;;
6438;SDS011;3252;52.540;13.290;2023-03-01T05:00:42;18.03;;;11.33;;
6438;SDS011;3252;52.540;13.290;2023-03-01T05:02:45;17.30;;;10.60;;
6438;SDS011;3252;52.540;13.290;2023-03-01T05:04:53;17.87;;;11.40;;
6438;SDS011;3252;52.540;13.290;2023-03-01T05:06:57;17.33;;;11.00;;
6438;SDS011;3252;52.540;13.290;2023-03-01T05:09:00;16.67;;;11.17;;
6438;SDS011;3252;52.540;13.290;2023-03-01T05:11:03;16.73;;;11.80;;
6438;SDS011;3252;52.540;13.290;2023-03-01T05:13:14;17.40;;;11.07;;
6438;SDS011;3252;52.540;13.290;2023-03-01T05:15:22;18.03;;;10.83;;
6438;SDS011;3252;52.540;13.290;2023-03-01T05:17:25;19.63;;;11.00;;
6438;SDS011;3252;52.540;13.290;2023-03-01T05:19:28;17.37;;;10.73;;
6438;SDS011;3252;52.540;13.290;2023-03-01T05:21:31;17.20;;;10.07;;
6438;SDS011;3252;52.540;13.290;2023-03-01T05:23:34;15.20;;;10.13;;
6438;SDS011;3252;52.540;13.290;2023-03-01T05:25:37;16.73;;;11.13;;
6438;SDS011;3252;52.540;13.290;2023-03-01T05:27:40;19.23;;;12.47;;
6438;SDS011;3252;52.540;13.290;2023-03-01T05:29:42;19.90;;;11.10;;
6438;SDS011;3252;52.540;13.290;2023-03-01T05:31:46;17.37;;;11.07;;
6438;SDS011;3252;52.540;13.290;2023-03-01T05:33:49;20.43;;;11.43;;
6438;SDS011;3252;52.540;13.290;2023-03-01T05:35:51;18.93;;;11.37;;
6438;SDS011;3252;52.540;13.290;2023-03-01T05:37:54;19.23;;;11.17;;
6438;SDS011;3252;52.540;13.290;2023-03-01T05:39:56;16.40;;;11.03;;
6438;SDS011;3252;52.540;13.290;2023-03-01T05:41:59;17.97;;;11.33;;
6438;SDS011;3252;52.540;13.290;2023-03-01T05:44:02;18.60;;;11.87;;
6438;SDS011;3252;52.540;13.290;2023-03-01T05:46:07;15.70;;;10.07;;
6438;SDS011;3252;52.540;13.290;2023-03-01T05:48:14;18.30;;;10.27;;
6438;SDS011;3252;52.540;13.290;2023-03-01T05:50:17;16.80;;;10.33;;
6438;SDS011;3252;52.540;13.290;2023-03-01T05:52:21;20.60;;;11.23;;
6438;SDS011;3252;52.540;13.290;2023-03-01T05:54:23;19.50;;;11.37;;
6438;SDS011;3252;52.540;13.290;2023-03-01T05:56:25;17.10;;;11.03;;
6438;SDS011;3252;52.540;13.290;2023-03-01T05:58:28;15.97;;;10.90;;
6438;SDS011;3252;52.540;13.290;2023-03-01T06:00:31;16.27;;;10.97;;
6438;SDS011;3252;52.540;13.290;2023-03-01T06:02:34;14.13;;;9.60;;
6438;SDS011;3252;52.540;13.290;2023-03-01T06:04:37;15.67;;;10.03;;
6438;SDS011;3252;52.540;13.290;2023-03-01T06:06:40;14.83;;;10.17;;
6438;SDS011;3252;52.540;13.290;2023-03-01T06:08:42;18.13;;;10.77;;
6438;SDS011;3252;52.540;13.290;2023-03-01T06:10:44;15.33;;;10.77;;
6438;SDS011;3252;52.540;13.290;2023-03-01T06:12:48;16.73;;;10.57;;
6438;SDS011;3252;52.540;13.290;2023-03-01T06:14:50;18.20;;;10.27;;
6438;SDS011;3252;52.540;13.290;2023-03-01T06:16:52;19.10;;;10.93;;
6438;SDS011;3252;52.540;13.290;2023-03-01T06:18:55;15.63;;;10.23;;
6438;SDS011;3252;52.540;13.290;2023-03-01T06:20:59;16.10;;;10.23;;
6438;SDS011;3252;52.540;13.290;2023-03-01T06:23:01;13.40;;;10.20;;
6438;SDS011;3252;52.540;13.290;2023-03-01T06:25:05;18.77;;;10.53;;
6438;SDS011;3252;52.540;13.290;2023-03-01T06:27:08;15.90;;;10.47;;
6438;SDS011;3252;52.540;13.290;2023-03-01T06:29:24;15.67;;;10.60;;
6438;SDS011;3252;52.540;13.290;2023-03-01T06:31:27;15.67;;;9.90;;
6438;SDS011;3252;52.540;13.290;2023-03-01T06:33:29;16.23;;;10.57;;
6438;SDS011;3252;52.540;13.290;2023-03-01T06:35:32;16.60;;;11.03;;
6438;SDS011;3252;52.540;13.290;2023-03-01T06:37:35;18.63;;;10.90;;
6438;SDS011;3252;52.540;13.290;2023-03-01T06:39:38;18.73;;;11.00;;
6438;SDS011;3252;52.540;13.290;2023-03-01T06:41:40;17.70;;;10.60;;
6438;SDS011;3252;52.540;13.290;2023-03-01T06:43:42;14.87;;;10.77;;
6438;SDS011;3252;52.540;13.290;2023-03-01T06:45:45;16.27;;;10.73;;
6438;SDS011;3252;52.540;13.290;2023-03-01T06:47:47;18.23;;;11.63;;
6438;SDS011;3252;52.540;13.290;2023-03-01T06:49:50;17.27;;;11.70;;
6438;SDS011;3252;52.540;13.290;2023-03-01T06:51:55;16.93;;;10.97;;
6438;SDS011;3252;52.540;13.290;2023-03-01T06:54:03;16.87;;;11.30;;
6438;SDS011;3252;52.540;13.290;2023-03-01T06:56:06;17.17;;;11.23;;
6438;SDS011;3252;52.540;13.290;2023-03-01T06:58:08;17.20;;;10.43;;
6438;SDS011;3252;52.540;13.290;2023-03-01T07:00:11;15.17;;;10.23;;
6438;SDS011;3252;52.540;13.290;2023-03-01T07:02:15;18.03;;;10.63;;
6438;SDS011;3252;52.540;13.290;2023-03-01T07:04:17;14.13;;;9.87;;
6438;SDS011;3252;52.540;13.290;2023-03-01T07:06:20;16.37;;;9.20;;
6438;SDS011;3252;52.540;13.290;2023-03-01T07:08:22;15.70;;;10.37;;
6438;SDS011;3252;52.540;13.290;2023-03-01T07:10:26;15.67;;;10.93;;
6438;SDS011;3252;52.540;13.290;2023-03-01T07:12:29;18.77;;;11.83;;
6438;SDS011;3252;52.540;13.290;2023-03-01T07:14:31;15.40;;;10.80;;
6438;SDS011;3252;52.540;13.290;2023-03-01T07:16:33;15.27;;;10.90;;
6438;SDS011;3252;52.540;13.290;2023-03-01T07:18:35;15.77;;;10.30;;
6438;SDS011;3252;52.540;13.290;2023-03-01T07:20:37;17.63;;;11.50;;
6438;SDS011;3252;52.540;13.290;2023-03-01T07:22:40;16.93;;;11.60;;
6438;SDS011;3252;52.540;13.290;2023-03-01T07:24:43;19.33;;;12.03;;
6438;SDS011;3252;52.540;13.290;2023-03-01T07:26:49;18.93;;;11.57;;
6438;SDS011;3252;52.540;13.290;2023-03-01T07:28:51;18.87;;;12.17;;
6438;SDS011;3252;52.540;13.290;2023-03-01T07:30:53;17.27;;;10.90;;
6438;SDS011;3252;52.540;13.290;2023-03-01T07:32:56;18.00;;;11.93;;
6438;SDS011;3252;52.540;13.290;2023-03-01T07:34:59;19.40;;;12.53;;
6438;SDS011;3252;52.540;13.290;2023-03-01T07:37:01;22.87;;;12.30;;
6438;SDS011;3252;52.540;13.290;2023-03-01T07:39:03;21.50;;;12.60;;
6438;SDS011;3252;52.540;13.290;2023-03-01T07:41:05;18.47;;;12.17;;
6438;SDS011;3252;52.540;13.290;2023-03-01T07:43:08;21.77;;;12.00;;
6438;SDS011;3252;52.540;13.290;2023-03-01T07:45:11;23.07;;;12.83;;
6438;SDS011;3252;52.540;13.290;2023-03-01T07:47:13;22.70;;;15.37;;
6438;SDS011;3252;52.540;13.290;2023-03-01T07:49:15;24.13;;;15.20;;
6438;SDS011;3252;52.540;13.290;2023-03-01T07:51:18;25.30;;;14.00;;
6438;SDS011;3252;52.540;13.290;2023-03-01T07:53:21;24.47;;;14.23;;
6438;SDS011;3252;52.540;13.290;2023-03-01T07:55:24;20.97;;;13.63;;
6438;SDS011;3252;52.540;13.290;2023-03-01T07:57:26;23.13;;;14.27;;
6438;SDS011;3252;52.540;13.290;2023-03-01T07:59:29;24.60;;;13.20;;
6438;SDS011;3252;52.540;13.290;2023-03-01T08:01:33;21.43;;;13.33;;
6438;SDS011;3252;52.540;13.290;2023-03-01T08:03:35;21.43;;;13.37;;
6438;SDS011;3252;52.540;13.290;2023-03-01T08:05:38;18.10;;;12.77;;
6438;SDS011;3252;52.540;13.290;2023-03-01T08:07:40;18.97;;;12.13;;
6438;SDS011;3252;52.540;13.290;2023-03-01T08:09:42;19.90;;;12.57;;
6438;SDS011;3252;52.540;13.290;2023-03-01T08:11:45;18.13;;;11.83;;
6438;SDS011;3252;52.540;13.290;2023-03-01T08:13:47;14.60;;;10.47;;
6438;SDS011;3252;52.540;13.290;2023-03-01T08:15:51;16.20;;;11.17;;
6438;SDS011;3252;52.540;13.290;2023-03-01T08:17:54;15.87;;;10.60;;
6438;SDS011;3252;52.540;13.290;2023-03-01T08:19:56;17.37;;;11.37;;
6438;SDS011;3252;52.540;13.290;2023-03-01T08:21:58;17.80;;;11.30;;
6438;SDS011;3252;52.540;13.290;2023-03-01T08:24:01;18.03;;;10.10;;
6438;SDS011;3252;52.540;13.290;2023-03-01T08:26:05;14.63;;;9.53;;
6438;SDS011;3252;52.540;13.290;2023-03-01T08:28:08;14.03;;;9.70;;
6438;SDS011;3252;52.540;13.290;2023-03-01T08:30:11;15.53;;;10.70;;
6438;SDS011;3252;52.540;13.290;2023-03-01T08:32:15;14.70;;;8.80;;
6438;SDS011;3252;52.540;13.290;2023-03-01T08:34:18;12.83;;;8.40;;
6438;SDS011;3252;52.540;13.290;2023-03-01T08:36:21;14.23;;;8.30;;
6438;SDS011;3252;52.540;13.290;2023-03-01T08:38:23;10.37;;;7.63;;
6438;SDS011;3252;52.540;13.290;2023-03-01T08:40:25;12.77;;;8.20;;
6438;SDS011;3252;52.540;13.290;2023-03-01T08:42:28;10.97;;;8.07;;
6438;SDS011;3252;52.540;13.290;2023-03-01T08:44:30;11.83;;;6.80;;
6438;SDS011;3252;52.540;13.290;2023-03-01T08:46:33;12.33;;;6.83;;
6438;SDS011;3252;52.540;13.290;2023-03-01T08:48:37;8.90;;;5.97;;
6438;SDS011;3252;52.540;13.290;2023-03-01T08:50:40;9.67;;;6.70;;
6438;SDS011;3252;52.540;13.290;2023-03-01T08:52:42;10.10;;;6.83;;
6438;SDS011;3252;52.540;13.290;2023-03-01T08:54:46;10.47;;;7.00;;
6438;SDS011;3252;52.540;13.290;2023-03-01T08:56:49;10.93;;;7.23;;
6438;SDS011;3252;52.540;13.290;2023-03-01T08:58:51;10.07;;;6.83;;
6438;SDS011;3252;52.540;13.290;2023-03-01T09:00:54;11.00;;;6.67;;
6438;SDS011;3252;52.540;13.290;2023-03-01T09:02:56;9.33;;;6.40;;
6438;SDS011;3252;52.540;13.290;2023-03-01T09:05:00;9.37;;;5.63;;
6438;SDS011;3252;52.540;13.290;2023-03-01T09:07:02;7.83;;;5.80;;
6438;SDS011;3252;52.540;13.290;2023-03-01T09:09:05;7.10;;;5.10;;
6438;SDS011;3252;52.540;13.290;2023-03-01T09:11:10;11.27;;;4.93;;
6438;SDS011;3252;52.540;13.290;2023-03-01T09:13:17;7.70;;;5.00;;
6438;SDS011;3252;52.540;13.290;2023-03-01T09:15:20;7.90;;;5.27;;
6438;SDS011;3252;52.540;13.290;2023-03-01T09:17:22;8.13;;;5.07;;
6438;SDS011;3252;52.540;13.290;2023-03-01T09:19:24;7.03;;;5.20;;
6438;SDS011;3252;52.540;13.290;2023-03-01T09:21:28;6.40;;;4.70;;
6438;SDS011;3252;52.540;13.290;2023-03-01T09:23:30;8.23;;;5.00;;
6438;SDS011;3252;52.540;13.290;2023-03-01T09:25:33;8.67;;;5.10;;
6438;SDS011;3252;52.540;13.290;2023-03-01T09:27:37;7.27;;;5.57;;
6438;SDS011;3252;52.540;13.290;2023-03-01T09:29:40;9.03;;;6.00;;
6438;SDS011;3252;52.540;13.290;2023-03-01T09:31:42;10.20;;;5.37;;
6438;SDS011;3252;52.540;13.290;2023-03-01T09:33:45;7.40;;;4.90;;
6438;SDS011;3252;52.540;13.290;2023-03-01T09:35:48;7.30;;;5.63;;
6438;SDS011;3252;52.540;13.290;2023-03-01T09:37:51;7.90;;;4.63;;
6438;SDS011;3252;52.540;13.290;2023-03-01T09:39:53;6.67;;;4.67;;
6438;SDS011;3252;52.540;13.290;2023-03-01T09:41:57;9.83;;;4.90;;
6438;SDS011;3252;52.540;13.290;2023-03-01T09:44:03;7.83;;;5.10;;
6438;SDS011;3252;52.540;13.290;2023-03-01T09:46:13;7.77;;;5.00;;
6438;SDS011;3252;52.540;13.290;2023-03-01T09:48:18;8.03;;;5.23;;
6438;SDS011;3252;52.540;13.290;2023-03-01T09:50:32;8.43;;;5.00;;
6438;SDS011;3252;52.540;13.290;2023-03-01T09:52:38;7.33;;;4.80;;
6438;SDS011;3252;52.540;13.290;2023-03-01T09:54:45;8.27;;;4.70;;
6438;SDS011;3252;52.540;13.290;2023-03-01T09:56:52;7.23;;;4.93;;
6438;SDS011;3252;52.540;13.290;2023-03-01T09:59:03;7.77;;;4.43;;
6438;SDS011;3252;52.540;13.290;2023-03-01T10:01:25;7.03;;;4.63;;
6438;SDS011;3252;52.540;13.290;2023-03-01T10:03:35;7.03;;;4.67;;
6438;SDS011;3252;52.540;13.290;2023-03-01T10:05:42;7.67;;;4.00;;
6438;SDS011;3252;52.540;13.290;2023-03-01T10:07:53;6.20;;;3.90;;
6438;SDS011;3252;52.540;13.290;2023-03-01T10:10:06;5.87;;;3.97;;
6438;SDS011;3252;52.540;13.290;2023-03-01T10:12:10;6.90;;;4.13;;
6438;SDS011;3252;52.540;13.290;2023-03-01T10:14:15;6.20;;;4.10;;
6438;SDS011;3252;52.540;13.290;2023-03-01T10:16:28;7.60;;;3.87;;
6438;SDS011;3252;52.540;13.290;2023-03-01T10:18:46;7.07;;;4.30;;
6438;SDS011;3252;52.540;13.290;2023-03-01T10:20:55;9.20;;;4.20;;
6438;SDS011;3252;52.540;13.290;2023-03-01T10:23:00;7.10;;;4.57;;
6438;SDS011;3252;52.540;13.290;2023-03-01T10:25:03;9.00;;;4.37;;
6438;SDS011;3252;52.540;13.290;2023-03-01T10:27:08;9.87;;;4.27;;
6438;SDS011;3252;52.540;13.290;2023-03-01T10:29:16;6.20;;;4.60;;
6438;SDS011;3252;52.540;13.290;2023-03-01T10:31:19;8.97;;;4.97;;
6438;SDS011;3252;52.540;13.290;2023-03-01T10:33:29;11.07;;;4.90;;
6438;SDS011;3252;52.540;13.290;2023-03-01T10:35:34;6.80;;;4.27;;
6438;SDS011;3252;52.540;13.290;2023-03-01T10:37:45;12.33;;;4.47;;
6438;SDS011;3252;52.540;13.290;2023-03-01T10:39:58;8.73;;;4.50;;
6438;SDS011;3252;52.540;13.290;2023-03-01T10:42:18;8.03;;;4.10;;
6438;SDS011;3252;52.540;13.290;2023-03-01T10:44:35;8.27;;;4.53;;
6438;SDS011;3252;52.540;13.290;2023-03-01T10:46:39;7.80;;;4.30;;
6438;SDS011;3252;52.540;13.290;2023-03-01T10:48:41;8.63;;;4.60;;
6438;SDS011;3252;52.540;13.290;2023-03-01T10:50:44;7.20;;;4.30;;
6438;SDS011;3252;52.540;13.290;2023-03-01T10:52:55;10.27;;;4.57;;
6438;SDS011;3252;52.540;13.290;2023-03-01T10:55:02;8.47;;;3.80;;
6438;SDS011;3252;52.540;13.290;2023-03-01T10:57:24;9.77;;;5.25;;
6438;SDS011;3252;52.540;13.290;2023-03-01T10:59:31;7.07;;;4.25;;
6438;SDS011;3252;52.540;13.290;2023-03-01T11:01:35;7.25;;;4.13;;
6438;SDS011;3252;52.540;13.290;2023-03-01T11:03:38;9.57;;;4.32;;
6438;SDS011;3252;52.540;13.290;2023-03-01T11:05:51;5.65;;;3.70;;
6438;SDS011;3252;52.540;13.290;2023-03-01T11:07:55;5.18;;;3.75;;
6438;SDS011;3252;52.540;13.290;2023-03-01T11:09:58;7.65;;;3.97;;
6438;SDS011;3252;52.540;13.290;2023-03-01T11:12:00;7.03;;;3.90;;
6438;SDS011;3252;52.540;13.290;2023-03-01T11:14:05;8.15;;;3.67;;
6438;SDS011;3252;52.540;13.290;2023-03-01T11:16:13;6.47;;;3.65;;
6438;SDS011;3252;52.540;13.290;2023-03-01T11:18:18;9.55;;;3.80;;
6438;SDS011;3252;52.540;13.290;2023-03-01T11:20:27;6.72;;;3.25;;
6438;SDS011;3252;52.540;13.290;2023-03-01T11:22:32;6.60;;;3.45;;
6438;SDS011;3252;52.540;13.290;2023-03-01T11:24:38;7.75;;;3.72;;
6438;SDS011;3252;52.540;13.290;2023-03-01T11:26:44;8.20;;;3.83;;
6438;SDS011;3252;52.540;13.290;2023-03-01T11:28:54;6.70;;;3.60;;
6438;SDS011;3252;52.540;13.290;2023-03-01T11:31:03;9.93;;;3.38;;
6438;SDS011;3252;52.540;13.290;2023-03-01T11:33:12;10.23;;;4.07;;
6438;SDS011;3252;52.540;13.290;2023-03-01T11:35:19;5.78;;;3.50;;
6438;SDS011;3252;52.540;13.290;2023-03-01T11:37:28;5.00;;;2.92;;
6438;SDS011;3252;52.540;13.290;2023-03-01T11:39:37;7.90;;;3.28;;
6438;SDS011;3252;52.540;13.290;2023-03-01T11:41:43;7.40;;;3.03;;
6438;SDS011;3252;52.540;13.290;2023-03-01T11:43:51;7.18;;;2.90;;
6438;SDS011;3252;52.540;13.290;2023-03-01T11:46:06;8.55;;;3.30;;
6438;SDS011;3252;52.540;13.290;2023-03-01T11:48:44;6.80;;;3.47;;
6438;SDS011;3252;52.540;13.290;2023-03-01T11:50:53;10.25;;;3.05;;
6438;SDS011;3252;52.540;13.290;2023-03-01T11:53:00;5.05;;;2.78;;
6438;SDS011;3252;52.540;13.290;2023-03-01T11:55:17;4.90;;;2.85;;
6438;SDS011;3252;52.540;13.290;2023-03-01T11:57:49;4.68;;;3.08;;
6438;SDS011;3252;52.540;13.290;2023-03-01T12:00:03;5.45;;;3.20;;
6438;SDS011;3252;52.540;13.290;2023-03-01T12:02:32;6.63;;;3.03;;
6438;SDS011;3252;52.540;13.290;2023-03-01T12:08:00;7.18;;;2.85;;
6438;SDS011;3252;52.540;13.290;2023-03-01T12:10:18;5.18;;;2.90;;
6438;SDS011;3252;52.540;13.290;2023-03-01T12:12:26;5.88;;;2.92;;
6438;SDS011;3252;52.540;13.290;2023-03-01T12:14:42;6.60;;;4.05;;
6438;SDS011;3252;52.540;13.290;2023-03-01T12:16:58;7.45;;;2.97;;
6438;SDS011;3252;52.540;13.290;2023-03-01T12:19:10;4.60;;;3.05;;
6438;SDS011;3252;52.540;13.290;2023-03-01T12:21:30;6.32;;;3.47;;
6438;SDS011;3252;52.540;13.290;2023-03-01T12:23:51;6.65;;;3.30;;
6438;SDS011;3252;52.540;13.290;2023-03-01T12:26:24;8.57;;;3.03;;
6438;SDS011;3252;52.540;13.290;2023-03-01T12:31:07;4.82;;;3.10;;
6438;SDS011;3252;52.540;13.290;2023-03-01T12:33:34;5.13;;;3.30;;
6438;SDS011;3252;52.540;13.290;2023-03-01T12:35:52;4.03;;;2.88;;
6438;SDS011;3252;52.540;13.290;2023-03-01T12:38:08;6.47;;;2.95;;
6438;SDS011;3252;52.540;13.290;2023-03-01T12:40:26;5.43;;;2.95;;
6438;SDS011;3252;52.540;13.290;2023-03-01T12:42:47;4.63;;;3.13;;